createdAt,value
2014-07-30T19:49:31.554Z,506
2014-07-30T19:49:49.978Z,503
2014-07-30T19:50:07.650Z,503
2014-07-30T19:50:25.931Z,506
2014-07-30T19:50:44.215Z,503
2014-07-30T19:51:02.512Z,504
2014-07-30T19:51:20.793Z,501
2014-07-30T19:51:39.074Z,502
2014-07-30T19:51:57.373Z,502
2014-07-30T19:52:13.779Z,505
2014-07-30T19:52:32.060Z,504
2014-07-30T19:52:49.078Z,504
2014-07-30T19:53:06.750Z,502
2014-07-30T19:53:25.031Z,505
2014-07-30T19:53:42.687Z,503
2014-07-30T19:54:00.346Z,502
2014-07-30T19:54:18.018Z,505
2014-07-30T19:54:34.424Z,501
2014-07-30T19:54:51.457Z,504
2014-07-30T19:55:09.738Z,503
2014-07-30T19:55:26.770Z,503
2014-07-30T19:55:45.066Z,504
2014-07-30T19:56:02.725Z,501
2014-07-30T19:56:20.381Z,505
2014-07-30T19:56:38.662Z,504
2014-07-30T19:56:56.961Z,505
2014-07-30T19:57:15.242Z,504
2014-07-30T19:57:32.274Z,502
2014-07-30T19:57:50.555Z,504
2014-07-30T19:58:08.213Z,500
2014-07-30T19:58:25.869Z,501
2014-07-30T19:58:43.666Z,502
2014-07-30T19:59:01.963Z,504
2014-07-30T19:59:20.246Z,500
2014-07-30T19:59:38.528Z,501
2014-07-30T19:59:56.324Z,500
2014-07-30T20:02:47.440Z,500
2014-07-30T20:03:55.973Z,501
2014-07-30T20:05:04.522Z,502
2014-07-30T20:06:13.071Z,499
2014-07-30T20:07:20.370Z,499
2014-07-30T20:08:28.905Z,307
2014-07-30T20:09:37.454Z,308
2014-07-30T20:10:46.003Z,308
2014-07-30T20:11:53.911Z,308
2014-07-30T20:13:01.960Z,309
2014-07-30T20:15:35.995Z,309
2014-07-30T20:17:43.954Z,308
2014-07-30T20:20:12.068Z,309
2014-07-30T20:22:19.400Z,308
2014-07-30T20:24:26.731Z,309
2014-07-30T20:26:34.688Z,307
2014-07-30T20:28:42.645Z,309
2014-07-30T20:30:51.245Z,309
2014-07-30T20:32:59.202Z,306
2014-07-30T20:35:07.300Z,308
2014-07-30T20:37:15.257Z,307
2014-07-30T20:39:23.980Z,310
2014-07-30T20:41:32.562Z,306
2014-07-30T20:43:40.534Z,0
2014-07-30T20:45:49.133Z,0
2014-07-30T20:47:57.090Z,0
2014-07-30T20:50:04.421Z,0
2014-07-30T20:52:11.738Z,0
2014-07-30T20:54:19.695Z,0
2014-07-30T20:56:27.652Z,0
2014-07-30T20:58:36.235Z,0
2014-07-30T21:00:44.191Z,0
2014-07-30T21:02:52.150Z,0
2014-07-30T21:05:00.856Z,0
2014-07-30T21:07:09.579Z,0
2014-07-30T21:09:17.537Z,0
2014-07-30T21:11:25.493Z,0
2014-07-30T21:13:32.809Z,0
2014-07-30T21:15:40.143Z,0
2014-07-30T21:17:48.725Z,0
2014-07-30T21:19:57.308Z,0
2014-07-30T21:22:05.265Z,0
2014-07-30T21:24:13.848Z,0
2014-07-30T21:26:22.430Z,0
2014-07-30T21:28:29.745Z,0
2014-07-30T21:30:38.329Z,0
2014-07-30T21:32:46.426Z,0
2014-07-30T21:34:54.398Z,0
2014-07-30T21:37:02.356Z,0
2014-07-30T21:39:10.938Z,0
2014-07-30T21:41:19.519Z,0
2014-07-30T21:43:26.851Z,0
2014-07-30T21:45:34.808Z,0
2014-07-30T21:47:42.767Z,0
2014-07-30T21:49:51.474Z,0
2014-07-30T21:51:59.431Z,0
2014-07-30T21:54:08.013Z,0
2014-07-30T21:56:15.969Z,0
2014-07-30T21:58:24.551Z,0
2014-07-30T22:00:32.494Z,0
2014-07-30T22:02:41.093Z,0
2014-07-30T22:04:49.050Z,0
2014-07-30T22:06:57.008Z,0
2014-07-30T22:09:05.589Z,0
2014-07-30T22:11:14.172Z,0
2014-07-30T22:13:21.504Z,0
2014-07-30T22:15:29.461Z,0
2014-07-30T22:17:37.418Z,0
2014-07-30T22:19:46.001Z,0
2014-07-30T22:21:53.958Z,0
2014-07-30T22:24:01.274Z,0
2014-07-30T22:26:07.997Z,0
2014-07-30T22:28:16.079Z,0
2014-07-30T22:30:24.036Z,0
2014-07-30T22:32:31.978Z,0
2014-07-30T22:34:40.561Z,0
2014-07-30T22:36:49.143Z,0
2014-07-30T22:38:57.099Z,0
2014-07-30T22:41:05.681Z,0
2014-07-30T22:43:14.263Z,0
2014-07-30T22:45:22.861Z,0
2014-07-30T22:47:31.443Z,0
2014-07-30T22:49:40.026Z,0
2014-07-30T22:51:48.609Z,0
2014-07-30T22:53:57.191Z,0
2014-07-30T22:56:05.788Z,0
2014-07-30T22:58:14.370Z,0
2014-07-30T23:00:22.312Z,0
2014-07-30T23:02:30.268Z,0
2014-07-30T23:04:38.851Z,0
2014-07-30T23:06:46.808Z,0
2014-07-30T23:08:54.750Z,0
2014-07-30T23:11:03.332Z,0
2014-07-30T23:13:11.914Z,0
2014-07-30T23:15:20.528Z,0
2014-07-30T23:17:28.485Z,0
2014-07-30T23:19:37.069Z,0
2014-07-30T23:21:45.026Z,0
2014-07-30T23:23:53.607Z,0
2014-07-30T23:26:01.580Z,0
2014-07-30T23:28:09.538Z,0
2014-07-30T23:30:17.479Z,0
2014-07-30T23:32:26.062Z,0
2014-07-30T23:34:34.644Z,0
2014-07-30T23:36:43.226Z,0
2014-07-30T23:38:51.807Z,0
2014-07-30T23:41:00.390Z,0
2014-07-30T23:43:08.362Z,0
2014-07-30T23:45:16.960Z,0
2014-07-30T23:47:24.983Z,0
2014-07-30T23:49:33.644Z,0
2014-07-30T23:51:41.032Z,0
2014-07-30T23:53:49.642Z,0
2014-07-30T23:55:58.260Z,0
2014-07-30T23:58:06.852Z,0
